Time;durP1;ratioP1;P1;durP2;ratioP2;P2;SDS_P1;SDS_P2;PMS_P1;PMS_P2;Temp;Humidity;BMP_temperature;BMP_pressure;BME280_temperature;BME280_humidity;BME280_pressure;Samples;Min_cycle;Max_cycle;Signal;HPM_P1;HPM_P2
2023/11/13 00:00:58;;;;;;;21.87;11.00;;;4.30;99.90;;;;;;5045492;28;20258;-75
2023/11/13 00:03:24;;;;;;;21.00;10.63;;;4.40;99.90;;;;;;5045347;28;20187;-74
2023/11/13 00:05:49;;;;;;;23.83;11.57;;;4.40;99.90;;;;;;5044833;28;20595;-75
2023/11/13 00:08:15;;;;;;;22.83;11.53;;;4.40;99.90;;;;;;5044090;28;20242;-75
2023/11/13 00:10:40;;;;;;;26.00;10.20;;;4.50;99.90;;;;;;5045194;28;20713;-75
2023/11/13 00:13:06;;;;;;;18.60;9.40;;;4.60;99.90;;;;;;5036760;28;20622;-75
2023/11/13 00:15:32;;;;;;;19.17;9.67;;;4.50;99.90;;;;;;5053035;28;20258;-75
2023/11/13 00:17:57;;;;;;;17.57;9.43;;;4.50;99.90;;;;;;5045284;28;20183;-75
2023/11/13 00:20:23;;;;;;;22.93;9.37;;;4.50;99.90;;;;;;5045116;28;20202;-74
2023/11/13 00:22:49;;;;;;;23.60;8.83;;;4.50;99.90;;;;;;5020450;28;20192;-75
2023/11/13 00:25:14;;;;;;;19.47;8.77;;;4.60;99.90;;;;;;5042987;28;20233;-75
2023/11/13 00:27:40;;;;;;;24.10;9.93;;;4.70;99.90;;;;;;5047683;28;20203;-75
2023/11/13 00:30:10;;;;;;;16.50;8.03;;;4.70;99.90;;;;;;5048411;28;20183;-75
2023/11/13 00:32:35;;;;;;;20.67;8.63;;;4.70;99.90;;;;;;5033279;28;20169;-74
2023/11/13 00:35:01;;;;;;;20.43;9.23;;;4.70;99.90;;;;;;5032339;28;20557;-75
2023/11/13 00:37:26;;;;;;;19.77;9.00;;;4.70;99.90;;;;;;5033077;28;20195;-75
2023/11/13 00:39:52;;;;;;;20.33;9.23;;;4.70;99.90;;;;;;5032633;28;20187;-75
2023/11/13 00:42:18;;;;;;;17.83;9.07;;;4.70;99.90;;;;;;5032806;28;20179;-75
2023/11/13 00:44:43;;;;;;;17.83;8.47;;;4.70;99.90;;;;;;5032408;28;20180;-74
2023/11/13 00:47:09;;;;;;;16.50;8.57;;;4.70;99.90;;;;;;5032667;28;20258;-75
2023/11/13 00:49:34;;;;;;;18.27;8.83;;;4.70;99.90;;;;;;5032928;28;20183;-75
2023/11/13 00:52:00;;;;;;;16.63;8.37;;;4.70;99.90;;;;;;5049215;28;20249;-75
2023/11/13 00:54:26;;;;;;;22.07;8.60;;;4.80;99.90;;;;;;5035976;28;20233;-74
2023/11/13 00:56:52;;;;;;;20.47;9.10;;;4.90;99.90;;;;;;5037270;28;20237;-75
2023/11/13 00:59:17;;;;;;;16.63;8.50;;;4.80;99.90;;;;;;5035267;28;20454;-73
2023/11/13 01:01:43;;;;;;;19.90;8.67;;;4.90;99.90;;;;;;5052462;28;20670;-74
2023/11/13 01:04:09;;;;;;;15.17;8.50;;;4.90;99.90;;;;;;5035475;28;20222;-75
2023/11/13 01:06:34;;;;;;;20.33;8.53;;;4.80;99.90;;;;;;5044452;28;20179;-75
2023/11/13 01:09:00;;;;;;;15.73;8.07;;;4.90;99.90;;;;;;5043987;28;20203;-75
2023/11/13 01:11:26;;;;;;;18.93;7.93;;;4.90;99.90;;;;;;5048889;28;20199;-74
2023/11/13 01:13:52;;;;;;;16.67;7.67;;;5.00;99.90;;;;;;5032415;28;20184;-74
2023/11/13 01:16:21;;;;;;;13.53;7.30;;;4.90;99.90;;;;;;5048889;28;20210;-75
2023/11/13 01:18:53;;;;;;;17.47;8.43;;;5.00;99.90;;;;;;5032396;28;20568;-75
2023/11/13 01:21:20;;;;;;;15.23;7.40;;;5.00;99.90;;;;;;5043256;28;20264;-75
2023/11/13 01:23:46;;;;;;;14.67;7.43;;;5.10;99.90;;;;;;5034565;28;20179;-75
2023/11/13 01:26:12;;;;;;;19.23;7.27;;;5.00;99.90;;;;;;5033419;28;20195;-75
2023/11/13 01:28:37;;;;;;;18.50;8.60;;;5.10;99.90;;;;;;5040403;28;20214;-75
2023/11/13 01:31:03;;;;;;;16.10;7.40;;;5.10;99.90;;;;;;5032189;28;20207;-75
2023/11/13 01:33:29;;;;;;;14.73;7.63;;;5.10;99.90;;;;;;5035843;28;20194;-75
2023/11/13 01:35:54;;;;;;;18.90;7.60;;;5.10;99.90;;;;;;5043135;28;20192;-75
2023/11/13 01:38:20;;;;;;;16.83;7.90;;;5.20;99.90;;;;;;5043443;28;20825;-75
2023/11/13 01:40:48;;;;;;;17.67;8.30;;;5.10;99.90;;;;;;5037290;28;20729;-75
2023/11/13 01:43:21;;;;;;;18.50;8.50;;;5.10;99.90;;;;;;5039878;28;20275;-75
2023/11/13 01:45:51;;;;;;;18.30;8.30;;;5.20;99.90;;;;;;5037721;28;20549;-74
2023/11/13 01:48:18;;;;;;;21.70;8.77;;;5.20;99.90;;;;;;5023477;28;20261;-75
2023/11/13 01:50:44;;;;;;;19.20;8.60;;;5.10;99.90;;;;;;5037873;28;20229;-75
2023/11/13 01:53:12;;;;;;;21.90;7.83;;;5.20;99.90;;;;;;5031344;28;20183;-75
2023/11/13 01:55:38;;;;;;;18.20;7.87;;;5.10;99.90;;;;;;5031083;28;20182;-75
2023/11/13 01:58:03;;;;;;;17.70;8.63;;;5.20;99.90;;;;;;5031393;28;20229;-75
2023/11/13 02:00:29;;;;;;;18.40;8.47;;;5.20;99.90;;;;;;5031458;28;20227;-75
2023/11/13 02:02:58;;;;;;;18.40;7.70;;;5.20;99.90;;;;;;5039388;28;20190;-75
2023/11/13 02:05:24;;;;;;;21.07;8.87;;;5.30;99.90;;;;;;5039197;28;20180;-75
2023/11/13 02:07:50;;;;;;;19.17;8.27;;;5.20;99.90;;;;;;5038062;28;20218;-75
2023/11/13 02:10:15;;;;;;;22.93;8.83;;;5.20;99.90;;;;;;5032478;28;20199;-75
2023/11/13 02:12:41;;;;;;;20.77;8.83;;;5.20;99.90;;;;;;5036963;28;20210;-74
2023/11/13 02:15:07;;;;;;;18.77;9.00;;;5.30;99.90;;;;;;5041037;28;20233;-75
2023/11/13 02:17:33;;;;;;;17.67;9.07;;;5.30;99.90;;;;;;5035591;28;20179;-75
2023/11/13 02:19:58;;;;;;;19.97;8.60;;;5.30;99.90;;;;;;5042832;28;20205;-75
2023/11/13 02:22:24;;;;;;;20.20;8.83;;;5.30;99.90;;;;;;5047710;28;20183;-75
2023/11/13 02:24:51;;;;;;;22.17;9.23;;;5.20;99.90;;;;;;5038711;28;20215;-75
2023/11/13 02:27:19;;;;;;;18.87;8.80;;;5.20;99.90;;;;;;5041491;28;20282;-75
2023/11/13 02:29:44;;;;;;;23.27;8.70;;;5.20;99.90;;;;;;5042681;28;20650;-75
2023/11/13 02:32:10;;;;;;;21.83;9.17;;;5.20;99.90;;;;;;5049297;28;20203;-75
2023/11/13 02:34:35;;;;;;;22.30;9.00;;;5.20;99.90;;;;;;5043562;28;20233;-74
2023/11/13 02:37:02;;;;;;;17.77;8.47;;;5.20;99.90;;;;;;5042456;28;20196;-75
2023/11/13 02:39:27;;;;;;;20.63;8.73;;;5.20;99.90;;;;;;5030973;28;20195;-75
2023/11/13 02:41:55;;;;;;;25.53;9.33;;;5.30;99.90;;;;;;5046450;28;20253;-75
2023/11/13 02:44:21;;;;;;;24.30;10.10;;;5.30;99.90;;;;;;5041729;28;20183;-75
2023/11/13 02:46:47;;;;;;;19.10;9.07;;;5.30;99.90;;;;;;5036055;28;20179;-75
2023/11/13 02:49:13;;;;;;;22.93;9.33;;;5.20;99.90;;;;;;5038856;28;20207;-74
2023/11/13 02:51:40;;;;;;;22.77;9.73;;;5.20;99.90;;;;;;5044530;28;20195;-75
2023/11/13 02:54:06;;;;;;;24.20;10.90;;;5.20;99.90;;;;;;5033799;28;20210;-75
2023/11/13 02:56:31;;;;;;;21.43;9.60;;;5.20;99.90;;;;;;5046529;28;20227;-75
2023/11/13 02:58:57;;;;;;;23.87;11.23;;;5.20;99.90;;;;;;5039204;28;20191;-75
2023/11/13 03:01:23;;;;;;;26.17;10.63;;;5.20;99.90;;;;;;5033531;28;20293;-75
2023/11/13 03:03:48;;;;;;;24.93;10.83;;;5.20;99.90;;;;;;5044026;28;20198;-75
2023/11/13 03:06:14;;;;;;;20.73;10.57;;;5.20;99.90;;;;;;5046561;28;20182;-73
2023/11/13 03:08:41;;;;;;;24.73;10.43;;;5.20;99.90;;;;;;5035717;28;20318;-74
2023/11/13 03:11:07;;;;;;;29.37;10.43;;;5.20;99.90;;;;;;5033046;28;20199;-75
2023/11/13 03:13:33;;;;;;;26.70;10.97;;;5.20;99.90;;;;;;5030405;28;20673;-75
2023/11/13 03:15:58;;;;;;;18.40;9.53;;;5.20;99.90;;;;;;5030235;28;20180;-75
2023/11/13 03:18:24;;;;;;;19.17;9.43;;;5.20;99.90;;;;;;5030486;28;20537;-75
2023/11/13 03:20:50;;;;;;;26.93;10.80;;;5.20;99.90;;;;;;5030691;28;20204;-75
2023/11/13 03:23:15;;;;;;;26.53;10.07;;;5.20;99.90;;;;;;5030355;28;20254;-75
2023/11/13 03:25:41;;;;;;;20.83;10.03;;;5.10;99.90;;;;;;5030127;28;20194;-75
2023/11/13 03:28:08;;;;;;;25.90;10.27;;;5.10;99.90;;;;;;5047919;28;20230;-75
2023/11/13 03:30:36;;;;;;;22.07;9.73;;;5.20;99.90;;;;;;5028210;28;20195;-75
2023/11/13 03:33:02;;;;;;;22.70;10.57;;;5.20;99.90;;;;;;5046760;28;20175;-75
2023/11/13 03:35:28;;;;;;;22.80;10.60;;;5.20;99.90;;;;;;5028265;28;20659;-75
2023/11/13 03:37:54;;;;;;;28.57;11.80;;;5.20;99.90;;;;;;5030599;28;20180;-74
2023/11/13 03:40:20;;;;;;;27.53;12.43;;;5.20;99.90;;;;;;5038445;28;20756;-75
2023/11/13 03:42:46;;;;;;;27.30;12.00;;;5.10;99.90;;;;;;5030475;28;20601;-75
2023/11/13 03:45:11;;;;;;;26.20;11.90;;;5.20;99.90;;;;;;5029570;28;20267;-75
2023/11/13 03:47:38;;;;;;;28.03;11.63;;;5.20;99.90;;;;;;5030137;28;20691;-74
2023/11/13 03:50:06;;;;;;;29.33;11.30;;;5.30;99.90;;;;;;5038837;28;20538;-75
2023/11/13 03:52:32;;;;;;;29.87;12.30;;;5.30;99.90;;;;;;5037487;28;20314;-75
2023/11/13 03:54:58;;;;;;;29.80;12.20;;;5.20;99.90;;;;;;5037117;28;20258;-75
2023/11/13 03:57:23;;;;;;;31.93;12.57;;;5.30;99.90;;;;;;5041285;28;20182;-75
2023/11/13 03:59:49;;;;;;;25.37;11.97;;;5.30;99.90;;;;;;5035052;28;20659;-75
2023/11/13 04:02:15;;;;;;;29.77;12.73;;;5.30;99.90;;;;;;5020315;28;20184;-74
2023/11/13 04:04:40;;;;;;;26.20;12.03;;;5.30;99.90;;;;;;5041464;28;20187;-76
2023/11/13 04:07:06;;;;;;;29.40;11.97;;;5.30;99.90;;;;;;5040548;28;20206;-77
2023/11/13 04:09:34;;;;;;;25.40;11.87;;;5.30;99.90;;;;;;5029773;28;21082;-75
2023/11/13 04:12:00;;;;;;;26.03;11.37;;;5.30;99.90;;;;;;5037827;28;20200;-75
2023/11/13 04:14:26;;;;;;;32.17;12.73;;;5.30;99.90;;;;;;5019445;28;20230;-76
2023/11/13 04:16:51;;;;;;;30.50;12.13;;;5.40;99.90;;;;;;5048278;28;20182;-75
2023/11/13 04:19:17;;;;;;;28.20;12.17;;;5.40;99.90;;;;;;5044816;28;20674;-76
2023/11/13 04:21:43;;;;;;;28.63;12.73;;;5.40;99.90;;;;;;5044871;28;20292;-76
2023/11/13 04:24:08;;;;;;;27.23;12.10;;;5.30;99.90;;;;;;5051581;28;20191;-75
2023/11/13 04:26:34;;;;;;;28.40;12.17;;;5.30;99.90;;;;;;5033084;28;20187;-73
2023/11/13 04:28:59;;;;;;;29.40;12.23;;;5.30;99.90;;;;;;5033128;28;20211;-74
2023/11/13 04:31:25;;;;;;;26.43;12.60;;;5.40;99.90;;;;;;5032739;28;20200;-74
2023/11/13 04:33:51;;;;;;;27.13;12.37;;;5.40;99.90;;;;;;5032824;28;20314;-74
2023/11/13 04:36:16;;;;;;;26.50;11.90;;;5.40;99.90;;;;;;5032361;28;20184;-74
2023/11/13 04:38:42;;;;;;;28.27;13.37;;;5.40;99.90;;;;;;5032956;28;20263;-75
2023/11/13 04:41:10;;;;;;;28.90;12.63;;;5.50;99.90;;;;;;5032595;28;20278;-74
2023/11/13 04:43:38;;;;;;;25.53;11.83;;;5.40;99.90;;;;;;5028306;28;20209;-75
2023/11/13 04:46:04;;;;;;;27.63;11.50;;;5.40;99.90;;;;;;5035736;28;20180;-75
2023/11/13 04:48:30;;;;;;;23.43;11.53;;;5.40;99.90;;;;;;5052470;28;20241;-75
2023/11/13 04:50:55;;;;;;;23.47;11.30;;;5.40;99.90;;;;;;5044338;28;20203;-75
2023/11/13 04:53:22;;;;;;;25.33;11.87;;;5.50;99.90;;;;;;5041620;28;20191;-75
2023/11/13 04:55:47;;;;;;;23.40;11.63;;;5.40;99.90;;;;;;5014283;28;20191;-75
2023/11/13 04:58:13;;;;;;;22.77;11.53;;;5.40;99.90;;;;;;5032501;28;20184;-75
2023/11/13 05:00:39;;;;;;;24.83;11.13;;;5.40;99.90;;;;;;5032459;28;20204;-75
2023/11/13 05:03:04;;;;;;;24.60;11.50;;;5.50;99.90;;;;;;5032266;28;20191;-74
2023/11/13 05:05:32;;;;;;;24.73;11.50;;;5.40;99.90;;;;;;5031993;28;20175;-75
2023/11/13 05:07:58;;;;;;;21.57;11.23;;;5.50;99.90;;;;;;5032295;28;20208;-74
2023/11/13 05:10:24;;;;;;;24.67;11.83;;;5.50;99.90;;;;;;5050362;28;20213;-75
2023/11/13 05:12:50;;;;;;;24.20;10.93;;;5.50;99.90;;;;;;5037399;28;20260;-75
2023/11/13 05:15:16;;;;;;;27.93;12.80;;;5.50;99.90;;;;;;5046692;28;20233;-75
2023/11/13 05:17:41;;;;;;;28.27;11.83;;;5.50;99.90;;;;;;5032147;28;20180;-74
2023/11/13 05:20:07;;;;;;;28.50;13.47;;;5.50;99.90;;;;;;5014269;28;20188;-74
2023/11/13 05:22:33;;;;;;;27.67;12.10;;;5.50;99.90;;;;;;5013564;28;20184;-74
2023/11/13 05:24:59;;;;;;;23.50;11.77;;;5.60;99.90;;;;;;5031427;28;20267;-75
2023/11/13 05:27:25;;;;;;;23.80;11.30;;;5.60;99.90;;;;;;5034868;28;20734;-75
2023/11/13 05:29:52;;;;;;;24.67;12.00;;;5.60;99.90;;;;;;5036975;28;20563;-75
2023/11/13 05:32:17;;;;;;;23.87;12.37;;;5.60;99.90;;;;;;5048102;28;20720;-75
2023/11/13 05:34:43;;;;;;;63.33;32.53;;;5.50;99.90;;;;;;5031187;28;20180;-75
2023/11/13 05:37:09;;;;;;;34.13;14.17;;;5.50;99.90;;;;;;5039950;28;20301;-74
2023/11/13 05:39:35;;;;;;;28.77;12.60;;;5.50;99.90;;;;;;5040052;28;20187;-75
2023/11/13 05:42:01;;;;;;;28.30;12.50;;;5.50;99.90;;;;;;5039687;28;20233;-75
2023/11/13 05:44:26;;;;;;;22.20;11.10;;;5.50;99.90;;;;;;5042691;28;20170;-75
2023/11/13 05:46:52;;;;;;;27.37;13.13;;;5.50;99.90;;;;;;5051516;28;20277;-75
2023/11/13 05:49:17;;;;;;;27.40;12.43;;;5.50;99.90;;;;;;5051251;28;20214;-73
2023/11/13 05:51:43;;;;;;;32.03;11.67;;;5.50;99.90;;;;;;5051451;28;20404;-74
2023/11/13 05:54:08;;;;;;;23.03;11.40;;;5.50;99.90;;;;;;5041765;28;20297;-75
2023/11/13 05:56:34;;;;;;;24.93;11.03;;;5.60;99.90;;;;;;5035870;28;20237;-75
2023/11/13 05:59:00;;;;;;;29.77;12.07;;;5.50;99.90;;;;;;5017610;28;20210;-75
2023/11/13 06:01:31;;;;;;;25.20;10.80;;;5.50;99.90;;;;;;5039341;28;20263;-74
2023/11/13 06:04:01;;;;;;;38.60;12.53;;;5.50;99.90;;;;;;5038550;28;20179;-75
2023/11/13 06:06:28;;;;;;;28.30;12.30;;;5.50;99.90;;;;;;5051088;28;20642;-74
2023/11/13 06:08:53;;;;;;;30.10;11.57;;;5.60;99.90;;;;;;5044147;28;20257;-75
2023/11/13 06:11:19;;;;;;;41.07;14.37;;;5.60;99.90;;;;;;5030916;28;20211;-72
2023/11/13 06:13:46;;;;;;;37.57;14.63;;;5.60;99.90;;;;;;5030936;28;20191;-74
2023/11/13 06:16:12;;;;;;;32.10;14.07;;;5.70;99.90;;;;;;5039951;28;20203;-74
2023/11/13 06:18:50;;;;;;;32.30;13.47;;;5.60;99.90;;;;;;5042664;28;20214;-75
2023/11/13 06:21:16;;;;;;;28.30;11.73;;;5.70;99.90;;;;;;5040736;28;20203;-75
2023/11/13 06:23:43;;;;;;;30.97;13.20;;;5.70;99.90;;;;;;5030828;28;20474;-75
2023/11/13 06:26:14;;;;;;;31.80;12.97;;;5.70;99.90;;;;;;5038995;28;20190;-75
2023/11/13 06:28:41;;;;;;;24.73;12.50;;;5.70;99.90;;;;;;5030925;28;20210;-76
2023/11/13 06:31:08;;;;;;;24.73;11.33;;;5.80;99.90;;;;;;5047287;28;20577;-76
2023/11/13 06:33:36;;;;;;;35.20;13.97;;;5.80;99.90;;;;;;5030539;28;20599;-75
2023/11/13 06:36:09;;;;;;;28.80;14.10;;;5.80;99.90;;;;;;5012601;28;20188;-75
2023/11/13 06:38:36;;;;;;;34.80;15.27;;;5.80;99.90;;;;;;5043028;28;20194;-75
2023/11/13 06:41:03;;;;;;;40.63;15.97;;;5.80;99.90;;;;;;5042604;28;20219;-75
2023/11/13 06:43:29;;;;;;;34.80;15.40;;;5.80;99.90;;;;;;5033905;28;20635;-75
2023/11/13 06:45:55;;;;;;;40.00;16.47;;;5.80;99.90;;;;;;5050172;28;20194;-75
2023/11/13 06:48:20;;;;;;;33.50;14.80;;;5.80;99.90;;;;;;5041835;28;20210;-75
2023/11/13 06:50:46;;;;;;;29.87;14.30;;;5.80;99.90;;;;;;5036358;28;20214;-75
2023/11/13 06:53:12;;;;;;;25.73;13.43;;;5.80;99.90;;;;;;5029035;28;20180;-76
2023/11/13 06:55:38;;;;;;;26.07;11.90;;;5.80;99.90;;;;;;5042785;28;20183;-73
2023/11/13 06:58:03;;;;;;;25.47;12.67;;;5.80;99.90;;;;;;5050497;28;20558;-75
2023/11/13 07:00:29;;;;;;;35.43;13.63;;;5.80;99.90;;;;;;5050242;28;20218;-74
2023/11/13 07:02:55;;;;;;;24.03;11.23;;;5.80;99.90;;;;;;5017177;28;20194;-74
2023/11/13 07:05:22;;;;;;;24.77;12.10;;;5.70;99.90;;;;;;5048562;28;20238;-75
2023/11/13 07:07:47;;;;;;;29.73;14.73;;;5.70;99.90;;;;;;5050160;28;20256;-74
2023/11/13 07:10:13;;;;;;;29.53;13.53;;;5.80;99.90;;;;;;5040641;28;20216;-75
2023/11/13 07:12:40;;;;;;;26.30;12.27;;;5.70;99.90;;;;;;5043414;28;20261;-75
2023/11/13 07:15:06;;;;;;;26.87;12.53;;;5.70;99.90;;;;;;5040494;28;20599;-75
2023/11/13 07:17:32;;;;;;;24.10;12.23;;;5.70;99.90;;;;;;5041123;28;20187;-75
2023/11/13 07:19:57;;;;;;;27.50;12.63;;;5.70;99.90;;;;;;5041293;28;20244;-75
2023/11/13 07:22:25;;;;;;;27.03;13.10;;;5.70;99.90;;;;;;5049680;28;20187;-74
2023/11/13 07:24:52;;;;;;;25.40;12.33;;;5.80;99.90;;;;;;5042824;28;20202;-75
2023/11/13 07:27:17;;;;;;;28.33;13.30;;;5.80;99.90;;;;;;5039331;28;20190;-74
2023/11/13 07:29:43;;;;;;;27.63;12.50;;;5.80;99.90;;;;;;5049521;28;20187;-74
2023/11/13 07:32:09;;;;;;;26.10;13.17;;;5.80;99.90;;;;;;5048398;28;20410;-74
2023/11/13 07:34:34;;;;;;;25.67;12.10;;;5.80;99.90;;;;;;5036955;28;20179;-73
2023/11/13 07:37:00;;;;;;;23.10;11.90;;;5.80;99.90;;;;;;5037659;28;20195;-73
2023/11/13 07:39:27;;;;;;;26.43;12.87;;;5.90;99.90;;;;;;5032361;28;20248;-73
2023/11/13 07:42:03;;;;;;;31.87;14.37;;;5.90;99.90;;;;;;5049371;28;20753;-74
2023/11/13 07:44:28;;;;;;;35.70;15.13;;;5.90;99.90;;;;;;5028676;28;20199;-73
2023/11/13 07:46:54;;;;;;;29.77;12.83;;;5.90;99.90;;;;;;5044367;28;20654;-73
2023/11/13 07:49:20;;;;;;;25.37;12.53;;;5.90;99.90;;;;;;5040715;28;20215;-74
2023/11/13 07:51:46;;;;;;;27.33;12.50;;;5.90;99.90;;;;;;5052860;28;20203;-74
2023/11/13 07:54:12;;;;;;;27.33;12.67;;;6.00;99.90;;;;;;5043187;28;20279;-73
2023/11/13 07:56:38;;;;;;;25.50;11.90;;;6.00;99.90;;;;;;5045946;28;20179;-74
2023/11/13 07:59:07;;;;;;;32.50;12.40;;;6.00;99.90;;;;;;5034891;28;20237;-73
2023/11/13 08:01:33;;;;;;;30.40;13.10;;;6.00;99.90;;;;;;5040724;28;20207;-74
2023/11/13 08:03:59;;;;;;;30.43;14.80;;;6.00;99.90;;;;;;5040592;28;20211;-73
2023/11/13 08:06:24;;;;;;;35.77;14.63;;;6.10;99.90;;;;;;5035539;28;20647;-74
2023/11/13 08:08:50;;;;;;;31.73;13.43;;;6.10;99.90;;;;;;5044397;28;20223;-73
2023/11/13 08:11:17;;;;;;;25.93;11.67;;;6.10;99.90;;;;;;5052366;28;20206;-74
2023/11/13 08:13:43;;;;;;;23.00;11.57;;;6.10;99.90;;;;;;5052659;28;20265;-72
2023/11/13 08:16:09;;;;;;;23.50;11.30;;;6.20;99.90;;;;;;5043822;28;20186;-73
2023/11/13 08:18:35;;;;;;;22.73;10.40;;;6.20;99.90;;;;;;5052457;28;20192;-73
2023/11/13 08:21:00;;;;;;;31.60;12.47;;;6.20;99.90;;;;;;5044307;28;20678;-73
2023/11/13 08:23:28;;;;;;;25.50;10.93;;;6.20;99.90;;;;;;5044041;28;20194;-75
2023/11/13 08:25:54;;;;;;;24.20;10.30;;;6.20;99.90;;;;;;5044081;28;20214;-75
2023/11/13 08:28:20;;;;;;;23.60;10.17;;;6.20;99.90;;;;;;5031507;28;20216;-74
2023/11/13 08:30:45;;;;;;;25.47;10.83;;;6.20;99.90;;;;;;5037924;28;20211;-74
2023/11/13 08:33:12;;;;;;;25.03;9.77;;;6.20;99.90;;;;;;5035549;28;20662;-73
2023/11/13 08:35:38;;;;;;;30.93;10.40;;;6.20;99.90;;;;;;5047233;28;20184;-73
2023/11/13 08:38:08;;;;;;;19.83;10.37;;;6.30;99.90;;;;;;5022614;28;20191;-74
2023/11/13 08:40:35;;;;;;;21.30;10.07;;;6.30;99.90;;;;;;5036413;28;20203;-73
2023/11/13 08:43:06;;;;;;;19.23;10.10;;;6.30;99.90;;;;;;5052045;28;20183;-72
2023/11/13 08:45:31;;;;;;;19.53;10.03;;;6.30;99.90;;;;;;5039741;28;20187;-74
2023/11/13 08:47:59;;;;;;;24.47;11.73;;;6.30;99.90;;;;;;5047408;28;20282;-73
2023/11/13 08:50:25;;;;;;;24.63;12.27;;;6.40;99.90;;;;;;5040948;28;20267;-74
2023/11/13 08:52:53;;;;;;;24.60;11.97;;;6.40;99.90;;;;;;5040518;28;20203;-77
2023/11/13 08:55:21;;;;;;;21.40;11.33;;;6.40;99.90;;;;;;5031235;28;20199;-74
2023/11/13 08:57:49;;;;;;;25.60;11.70;;;6.40;99.90;;;;;;5040367;28;20234;-75
2023/11/13 09:00:20;;;;;;;24.00;11.07;;;6.40;99.90;;;;;;5049354;28;20210;-74
2023/11/13 09:02:54;;;;;;;23.00;11.43;;;6.40;99.90;;;;;;5051497;28;20531;-74
2023/11/13 09:05:23;;;;;;;21.83;9.67;;;6.40;99.90;;;;;;5039565;28;20286;-74
2023/11/13 09:07:50;;;;;;;25.00;11.60;;;6.40;99.90;;;;;;5021825;28;20306;-74
2023/11/13 09:10:16;;;;;;;23.37;10.67;;;6.50;99.90;;;;;;5013903;28;20571;-74
2023/11/13 09:12:43;;;;;;;17.47;9.23;;;6.50;99.90;;;;;;5039967;28;20183;-74
2023/11/13 09:15:11;;;;;;;20.53;10.03;;;6.50;99.90;;;;;;5031002;28;20710;-75
2023/11/13 09:17:47;;;;;;;20.13;8.50;;;6.50;99.90;;;;;;5044163;28;20187;-74
2023/11/13 09:20:15;;;;;;;18.97;7.90;;;6.50;99.90;;;;;;5041985;28;20320;-74
2023/11/13 09:22:44;;;;;;;15.70;7.30;;;6.50;99.90;;;;;;5044561;28;20171;-74
2023/11/13 09:25:14;;;;;;;16.60;8.03;;;6.50;99.90;;;;;;5041798;28;20191;-74
2023/11/13 09:27:47;;;;;;;15.60;7.90;;;6.50;99.90;;;;;;5031612;28;20208;-74
2023/11/13 09:30:15;;;;;;;15.97;7.47;;;6.60;99.90;;;;;;5040596;28;20215;-74
2023/11/13 09:32:44;;;;;;;14.77;7.20;;;6.60;99.90;;;;;;5042873;28;20207;-74
2023/11/13 09:35:23;;;;;;;13.53;7.07;;;6.60;99.90;;;;;;5041665;28;20191;-75
2023/11/13 09:37:53;;;;;;;18.37;8.37;;;6.60;99.90;;;;;;5031342;28;20211;-74
2023/11/13 09:40:23;;;;;;;15.30;7.60;;;6.60;99.90;;;;;;5039184;28;20302;-74
2023/11/13 09:42:48;;;;;;;15.67;7.40;;;6.70;99.90;;;;;;5039333;28;20192;-74
2023/11/13 09:45:14;;;;;;;15.53;8.00;;;6.70;99.90;;;;;;5039821;28;20224;-74
2023/11/13 09:47:44;;;;;;;16.90;8.53;;;6.80;99.90;;;;;;5046073;28;20207;-76
2023/11/13 09:50:15;;;;;;;15.83;7.90;;;6.80;99.90;;;;;;5047678;28;20199;-74
2023/11/13 09:52:50;;;;;;;15.47;7.83;;;6.90;99.90;;;;;;5043945;28;20176;-74
2023/11/13 09:55:18;;;;;;;13.93;8.20;;;6.80;99.90;;;;;;5048814;28;20600;-74
2023/11/13 09:57:46;;;;;;;14.70;7.97;;;6.80;99.90;;;;;;5035978;28;20525;-74
2023/11/13 10:00:17;;;;;;;18.23;8.63;;;6.90;99.90;;;;;;5041408;28;20221;-74
2023/11/13 10:02:48;;;;;;;16.20;8.67;;;6.90;99.90;;;;;;5039066;28;20183;-73
2023/11/13 10:05:15;;;;;;;15.87;7.60;;;6.90;99.90;;;;;;5021440;28;20630;-73
2023/11/13 10:07:48;;;;;;;16.60;7.60;;;7.00;99.90;;;;;;5045885;28;20239;-74
2023/11/13 10:10:21;;;;;;;15.80;7.27;;;7.00;99.90;;;;;;5046877;28;20210;-74
2023/11/13 10:12:51;;;;;;;15.00;7.27;;;7.00;99.90;;;;;;5029961;28;20269;-73
2023/11/13 10:15:31;;;;;;;14.50;7.80;;;7.00;99.90;;;;;;5031143;28;20207;-73
2023/11/13 10:18:01;;;;;;;25.57;9.67;;;7.00;99.90;;;;;;5035183;28;20281;-73
2023/11/13 10:20:27;;;;;;;14.30;7.70;;;7.10;99.90;;;;;;5049499;28;20249;-73
2023/11/13 10:23:05;;;;;;;15.70;8.00;;;7.10;99.90;;;;;;5041979;28;20187;-73
2023/11/13 10:25:45;;;;;;;17.77;9.67;;;7.20;99.90;;;;;;5037889;28;20289;-73
2023/11/13 10:28:13;;;;;;;18.40;8.90;;;7.20;99.90;;;;;;5038297;28;20211;-74
2023/11/13 10:31:01;;;;;;;23.33;11.00;;;7.20;99.90;;;;;;5042948;28;20686;-74
2023/11/13 10:33:28;;;;;;;14.67;7.80;;;7.20;99.90;;;;;;5030248;28;20179;-76
2023/11/13 10:35:56;;;;;;;23.00;10.43;;;7.20;99.90;;;;;;5038027;28;20180;-72
2023/11/13 10:38:21;;;;;;;24.17;9.40;;;7.30;99.90;;;;;;5048518;28;20205;-75
2023/11/13 10:41:00;;;;;;;23.83;11.23;;;7.30;99.90;;;;;;5041608;28;20207;-75
2023/11/13 10:43:33;;;;;;;19.40;9.27;;;7.30;99.90;;;;;;5033099;28;20241;-74
2023/11/13 10:46:00;;;;;;;12.63;6.00;;;7.40;99.90;;;;;;5031421;28;20651;-75
2023/11/13 10:48:43;;;;;;;16.33;6.50;;;7.40;99.90;;;;;;5046143;28;20214;-75
2023/11/13 10:51:11;;;;;;;10.77;6.10;;;7.50;99.90;;;;;;5036834;28;20208;-75
2023/11/13 10:53:39;;;;;;;16.87;6.43;;;7.60;99.90;;;;;;5033822;28;20369;-76
2023/11/13 10:56:05;;;;;;;14.47;6.87;;;7.60;99.90;;;;;;5033179;28;20562;-75
2023/11/13 10:58:32;;;;;;;13.93;6.33;;;7.70;99.90;;;;;;5049516;28;20654;-75
2023/11/13 11:01:00;;;;;;;11.70;5.87;;;7.80;99.90;;;;;;5041545;28;20702;-76
2023/11/13 11:03:31;;;;;;;13.23;5.23;;;7.90;99.90;;;;;;5033169;28;20198;-76
2023/11/13 11:06:06;;;;;;;10.77;5.13;;;8.00;99.90;;;;;;5034238;28;20196;-76
2023/11/13 11:08:34;;;;;;;11.80;5.20;;;8.00;99.90;;;;;;5032929;28;20226;-76
2023/11/13 11:11:03;;;;;;;11.13;5.20;;;7.90;99.90;;;;;;5034000;28;20579;-76
2023/11/13 11:13:30;;;;;;;9.17;5.47;;;8.00;99.90;;;;;;5032379;28;20635;-76
2023/11/13 11:16:04;;;;;;;8.53;3.80;;;8.00;99.90;;;;;;5034410;28;20188;-75
2023/11/13 11:18:45;;;;;;;7.87;3.43;;;8.00;99.90;;;;;;5037777;28;20554;-76
2023/11/13 11:21:36;;;;;;;5.17;3.10;;;8.00;99.90;;;;;;5038297;28;20702;-76
2023/11/13 11:24:11;;;;;;;10.73;3.50;;;8.00;99.90;;;;;;5034302;28;20666;-76
2023/11/13 11:26:54;;;;;;;4.17;2.53;;;8.10;99.90;;;;;;5033853;28;20557;-76
2023/11/13 11:29:37;;;;;;;9.30;3.50;;;8.10;99.90;;;;;;5043671;28;20592;-76
2023/11/13 11:32:21;;;;;;;29.27;9.97;;;8.10;99.90;;;;;;5045775;28;20203;-76
2023/11/13 11:34:53;;;;;;;16.53;6.10;;;8.10;99.90;;;;;;5038502;28;20179;-75
2023/11/13 11:37:19;;;;;;;9.87;3.70;;;8.10;99.90;;;;;;5045222;28;20174;-76
2023/11/13 11:39:49;;;;;;;5.57;3.13;;;8.10;99.90;;;;;;5045252;28;20635;-76
2023/11/13 11:42:23;;;;;;;5.77;2.70;;;8.20;99.90;;;;;;5044021;28;20382;-76
2023/11/13 11:44:56;;;;;;;6.47;2.40;;;8.20;99.90;;;;;;5041128;28;20403;-77
2023/11/13 11:47:26;;;;;;;7.37;2.67;;;8.20;99.90;;;;;;5035055;28;20274;-76
2023/11/13 11:49:58;;;;;;;7.03;2.57;;;8.30;99.90;;;;;;5053520;28;20566;-76
2023/11/13 11:52:52;;;;;;;7.13;2.73;;;8.30;99.90;;;;;;5032475;28;20183;-76
2023/11/13 11:55:19;;;;;;;4.73;2.27;;;8.40;99.90;;;;;;5042079;28;20175;-77
2023/11/13 11:57:46;;;;;;;3.30;1.90;;;8.50;99.90;;;;;;5048163;28;20517;-77
2023/11/13 12:00:33;;;;;;;3.63;2.20;;;8.50;99.90;;;;;;5041820;28;20712;-77
2023/11/13 12:02:59;;;;;;;5.60;3.00;;;8.50;99.90;;;;;;5053049;28;20262;-77
2023/11/13 12:05:25;;;;;;;5.53;3.10;;;8.60;99.90;;;;;;5041631;28;20210;-76
2023/11/13 12:07:51;;;;;;;7.80;3.33;;;8.50;99.90;;;;;;5046944;28;20287;-77
2023/11/13 12:10:21;;;;;;;7.73;3.20;;;8.60;99.90;;;;;;5044451;28;20196;-77
2023/11/13 12:12:50;;;;;;;6.60;3.70;;;8.60;99.90;;;;;;5047454;28;20207;-77
2023/11/13 12:15:16;;;;;;;9.63;4.40;;;8.50;99.90;;;;;;5039831;28;20175;-76
2023/11/13 12:17:43;;;;;;;6.47;3.80;;;8.50;99.90;;;;;;5044436;28;20171;-77
2023/11/13 12:20:10;;;;;;;12.93;5.83;;;8.50;99.90;;;;;;5044285;28;20301;-77
2023/11/13 12:22:37;;;;;;;11.90;5.67;;;8.50;99.90;;;;;;5044743;28;20179;-76
2023/11/13 12:25:04;;;;;;;9.60;4.97;;;8.50;99.90;;;;;;5044379;28;20616;-77
2023/11/13 12:27:34;;;;;;;11.00;5.77;;;8.50;99.90;;;;;;5040703;28;20188;-76
2023/11/13 12:30:02;;;;;;;14.10;6.43;;;8.50;99.90;;;;;;5047833;28;20191;-77
2023/11/13 12:32:29;;;;;;;12.60;6.63;;;8.50;99.90;;;;;;5043955;28;20179;-77
2023/11/13 12:34:59;;;;;;;13.13;6.53;;;8.50;99.90;;;;;;5051966;28;20187;-76
2023/11/13 12:37:27;;;;;;;20.00;9.50;;;8.50;99.90;;;;;;5032875;28;20195;-76
2023/11/13 12:39:54;;;;;;;22.77;15.07;;;8.60;99.90;;;;;;5038306;28;20274;-76
2023/11/13 12:42:21;;;;;;;14.70;7.93;;;8.60;99.90;;;;;;5050447;28;20361;-76
2023/11/13 12:44:47;;;;;;;13.57;6.90;;;8.60;99.90;;;;;;5039829;28;20188;-76